createdAt,value
2016-09-28T00:00:55.577Z,1022.18
2016-09-28T00:01:56.327Z,1022.18
2016-09-28T00:02:57.011Z,1022.09
2016-09-28T00:03:57.709Z,1022.12
2016-09-28T00:04:58.426Z,1022.12
2016-09-28T00:05:59.202Z,1022.06
2016-09-28T00:06:59.995Z,1022.07
2016-09-28T00:08:00.675Z,1022.02
2016-09-28T00:09:01.387Z,1022
2016-09-28T00:10:02.074Z,1021.98
2016-09-28T00:11:02.764Z,1021.96
2016-09-28T00:12:03.447Z,1021.91
2016-09-28T00:13:04.144Z,1021.96
2016-09-28T00:14:04.849Z,1021.95
2016-09-28T00:15:05.535Z,1021.89
2016-09-28T00:16:06.210Z,1021.98
2016-09-28T00:17:06.906Z,1021.92
2016-09-28T00:18:07.637Z,1021.9
2016-09-28T00:19:08.333Z,1021.88
2016-09-28T00:20:09.031Z,1021.86
2016-09-28T00:21:09.738Z,1021.8
2016-09-28T00:22:10.434Z,1021.79
2016-09-28T00:23:11.104Z,1021.78
2016-09-28T00:24:11.793Z,1021.78
2016-09-28T00:25:12.473Z,1021.76
2016-09-28T00:26:13.145Z,1021.73
2016-09-28T00:27:13.850Z,1021.77
2016-09-28T00:28:14.536Z,1021.72
2016-09-28T00:29:15.227Z,1021.71
2016-09-28T00:30:15.911Z,1021.63
2016-09-28T00:31:16.595Z,1021.59
2016-09-28T00:32:17.283Z,1021.66
2016-09-28T00:33:17.986Z,1021.58
2016-09-28T00:34:18.676Z,1021.62
2016-09-28T00:35:19.363Z,1021.62
2016-09-28T00:36:20.044Z,1021.6
2016-09-28T00:37:20.726Z,1021.63
2016-09-28T00:38:21.408Z,1021.66
2016-09-28T00:39:22.084Z,1021.62
2016-09-28T00:40:22.766Z,1021.66
2016-09-28T00:41:23.442Z,1021.63
2016-09-28T00:42:24.135Z,1021.66
2016-09-28T00:43:24.824Z,1021.59
2016-09-28T00:44:25.515Z,1021.62
2016-09-28T00:45:26.205Z,1021.58
2016-09-28T00:46:26.882Z,1021.58
2016-09-28T00:47:27.573Z,1021.64
2016-09-28T00:48:28.284Z,1021.62
2016-09-28T00:49:28.985Z,1021.64
2016-09-28T00:50:29.673Z,1021.62
2016-09-28T00:51:30.365Z,1021.6
2016-09-28T00:52:31.102Z,1021.61
2016-09-28T00:53:31.815Z,1021.6
2016-09-28T00:54:32.497Z,1021.58
2016-09-28T00:55:33.219Z,1021.62
2016-09-28T00:56:33.912Z,1021.55
2016-09-28T00:57:34.590Z,1021.5
2016-09-28T00:58:35.270Z,1021.51
2016-09-28T00:59:35.957Z,1021.49
2016-09-28T01:00:36.666Z,1021.52
2016-09-28T01:01:37.356Z,1021.59
2016-09-28T01:02:38.043Z,1021.51
2016-09-28T01:03:38.725Z,1021.53
2016-09-28T01:04:39.415Z,1021.5
2016-09-28T01:05:40.111Z,1021.38
2016-09-28T01:06:40.809Z,1021.41
2016-09-28T01:07:41.504Z,1021.44
2016-09-28T01:08:42.192Z,1021.36
2016-09-28T01:09:42.892Z,1021.46
2016-09-28T01:10:43.570Z,1021.36
2016-09-28T01:11:45.132Z,1021.43
2016-09-28T01:12:45.838Z,1021.36
2016-09-28T01:13:46.517Z,1021.37
2016-09-28T01:14:47.209Z,1021.42
2016-09-28T01:15:47.894Z,1021.44
2016-09-28T01:16:48.585Z,1021.47
2016-09-28T01:17:49.265Z,1021.48
2016-09-28T01:18:49.998Z,1021.47
2016-09-28T01:19:50.703Z,1021.39
2016-09-28T01:20:51.390Z,1021.42
2016-09-28T01:21:52.086Z,1021.4
2016-09-28T01:22:52.779Z,1021.39
2016-09-28T01:23:53.471Z,1021.41
2016-09-28T01:24:54.154Z,1021.36
2016-09-28T01:25:54.841Z,1021.36
2016-09-28T01:26:55.532Z,1021.29
2016-09-28T01:27:56.224Z,1021.26
2016-09-28T01:28:56.899Z,1021.2
2016-09-28T01:29:57.584Z,1021.16
2016-09-28T01:30:58.273Z,1021.12
2016-09-28T01:31:58.970Z,1021.16
2016-09-28T01:32:59.649Z,1021.06
2016-09-28T01:34:00.345Z,1021.01
2016-09-28T01:35:01.032Z,1021.1
2016-09-28T01:36:01.716Z,1021.06
2016-09-28T01:37:02.392Z,1021.06
2016-09-28T01:38:03.068Z,1021.12
2016-09-28T01:39:03.760Z,1021.05
2016-09-28T01:40:04.462Z,1021.07
2016-09-28T01:41:05.158Z,1021.09
2016-09-28T01:42:05.843Z,1021.06
2016-09-28T01:43:06.526Z,1021.1
2016-09-28T01:44:07.203Z,1021.03
2016-09-28T01:45:07.895Z,1021.13
2016-09-28T01:46:08.592Z,1021.08
2016-09-28T01:47:09.266Z,1021.07
2016-09-28T01:48:09.965Z,1021.18
2016-09-28T01:49:10.648Z,1021.09
2016-09-28T01:50:11.338Z,1021.12
2016-09-28T01:51:12.033Z,1021.08
2016-09-28T01:52:12.722Z,1021.14
2016-09-28T01:53:13.405Z,1021.09
2016-09-28T01:54:14.095Z,1021.04
2016-09-28T01:55:14.773Z,1021.02
2016-09-28T01:56:15.443Z,1021
2016-09-28T01:57:16.168Z,1020.92
2016-09-28T01:58:16.858Z,1020.91
2016-09-28T01:59:17.539Z,1020.9
2016-09-28T02:00:18.250Z,1020.92
2016-09-28T02:01:18.941Z,1020.89
2016-09-28T02:02:19.635Z,1020.93
2016-09-28T02:03:20.323Z,1020.79
2016-09-28T02:04:21.001Z,1020.81
2016-09-28T02:05:21.677Z,1020.77
2016-09-28T02:06:22.349Z,1020.78
2016-09-28T02:07:23.027Z,1020.72
2016-09-28T02:08:23.715Z,1020.76
2016-09-28T02:09:24.383Z,1020.65
2016-09-28T02:10:25.075Z,1020.65
2016-09-28T02:11:25.822Z,1020.65
2016-09-28T02:12:26.506Z,1020.63
2016-09-28T02:13:27.178Z,1020.66
2016-09-28T02:14:27.873Z,1020.55
2016-09-28T02:15:28.558Z,1020.59
2016-09-28T02:16:29.241Z,1020.59
2016-09-28T02:17:29.929Z,1020.56
2016-09-28T02:18:30.616Z,1020.55
2016-09-28T02:19:31.376Z,1020.51
2016-09-28T02:20:32.044Z,1020.42
2016-09-28T02:21:32.732Z,1020.47
2016-09-28T02:22:33.418Z,1020.54
2016-09-28T02:23:34.111Z,1020.48
2016-09-28T02:24:34.847Z,1020.46
2016-09-28T02:25:35.541Z,1020.47
2016-09-28T02:26:36.235Z,1020.41
2016-09-28T02:27:36.921Z,1020.45
2016-09-28T02:28:37.612Z,1020.41
2016-09-28T02:29:38.315Z,1020.46
2016-09-28T02:30:38.989Z,1020.49
2016-09-28T02:31:39.673Z,1020.41
2016-09-28T02:32:40.359Z,1020.36
2016-09-28T02:33:41.040Z,1020.33
2016-09-28T02:34:41.724Z,1020.3
2016-09-28T02:35:42.433Z,1020.36
2016-09-28T02:36:43.136Z,1020.3
2016-09-28T02:37:43.809Z,1020.38
2016-09-28T02:38:44.487Z,1020.34
2016-09-28T02:39:45.170Z,1020.3
2016-09-28T02:40:45.860Z,1020.33
2016-09-28T02:41:46.573Z,1020.24
2016-09-28T02:42:47.257Z,1020.28
2016-09-28T02:43:47.947Z,1020.28
2016-09-28T02:44:48.629Z,1020.33
2016-09-28T02:45:49.317Z,1020.26
2016-09-28T02:46:50.008Z,1020.35
2016-09-28T02:47:50.685Z,1020.29
2016-09-28T02:48:51.369Z,1020.22
2016-09-28T02:49:52.042Z,1020.15
2016-09-28T02:50:52.727Z,1020.15
2016-09-28T02:51:53.420Z,1019.95
2016-09-28T02:52:54.103Z,1019.91
2016-09-28T02:53:54.785Z,1019.95
2016-09-28T02:54:55.458Z,1019.97
2016-09-28T02:55:56.160Z,1019.92
2016-09-28T02:56:56.829Z,1019.88
2016-09-28T02:57:57.503Z,1019.88
2016-09-28T02:58:58.200Z,1019.92
2016-09-28T02:59:58.874Z,1019.84
2016-09-28T03:00:59.560Z,1019.78
2016-09-28T03:02:00.281Z,1019.78
2016-09-28T03:03:00.982Z,1019.72
2016-09-28T03:04:01.673Z,1019.64
2016-09-28T03:05:02.375Z,1019.53
2016-09-28T03:06:03.068Z,1019.52
2016-09-28T03:07:03.757Z,1019.36
2016-09-28T03:08:04.444Z,1019.38
2016-09-28T03:09:05.134Z,1019.44
2016-09-28T03:10:05.843Z,1019.48
2016-09-28T03:11:06.552Z,1019.52
2016-09-28T03:12:07.281Z,1019.52
2016-09-28T03:13:07.961Z,1019.48
2016-09-28T03:14:08.641Z,1019.51
2016-09-28T03:15:09.317Z,1019.46
2016-09-28T03:16:10.021Z,1019.5
2016-09-28T03:17:10.697Z,1019.49
2016-09-28T03:18:11.376Z,1019.44
2016-09-28T03:19:12.050Z,1019.51
2016-09-28T03:20:12.821Z,1019.51
2016-09-28T03:21:13.508Z,1019.56
2016-09-28T03:22:14.189Z,1019.63
2016-09-28T03:23:14.891Z,1019.58
2016-09-28T03:24:15.556Z,1019.59
2016-09-28T03:25:16.236Z,1019.64
2016-09-28T03:26:16.908Z,1019.71
2016-09-28T03:27:17.619Z,1019.69
2016-09-28T03:28:18.309Z,1019.75
2016-09-28T03:29:19.012Z,1019.73
2016-09-28T03:30:19.702Z,1019.77
2016-09-28T03:31:20.397Z,1019.83
2016-09-28T03:32:21.097Z,1019.77
2016-09-28T03:33:21.774Z,1019.83
2016-09-28T03:34:22.467Z,1019.84
2016-09-28T03:35:23.149Z,1019.89
2016-09-28T03:36:23.857Z,1019.93
2016-09-28T03:37:24.545Z,1019.96
2016-09-28T03:38:25.234Z,1020.02
2016-09-28T03:39:25.923Z,1020.04
2016-09-28T03:40:26.599Z,1019.95
2016-09-28T03:41:27.285Z,1019.83
2016-09-28T03:42:27.982Z,1019.84
2016-09-28T03:43:28.663Z,1019.8
2016-09-28T03:44:29.361Z,1019.75
2016-09-28T03:45:30.044Z,1019.73
2016-09-28T03:46:30.737Z,1019.62
2016-09-28T03:47:31.408Z,1019.67
2016-09-28T03:48:32.081Z,1019.58
2016-09-28T03:49:32.765Z,1019.54
2016-09-28T03:50:33.508Z,1019.64
2016-09-28T03:51:34.178Z,1019.59
2016-09-28T03:52:34.894Z,1019.58
2016-09-28T03:53:35.569Z,1019.57
2016-09-28T03:54:36.254Z,1019.56
2016-09-28T03:55:36.943Z,1019.59
2016-09-28T03:56:37.656Z,1019.57
2016-09-28T03:57:38.341Z,1019.59
2016-09-28T03:58:39.056Z,1019.52
2016-09-28T03:59:39.810Z,1019.53
2016-09-28T04:00:40.500Z,1019.61
2016-09-28T04:01:41.202Z,1019.58
2016-09-28T04:02:41.896Z,1019.56
2016-09-28T04:03:42.574Z,1019.6
2016-09-28T04:04:43.268Z,1019.52
2016-09-28T04:05:43.965Z,1019.5
2016-09-28T04:06:44.643Z,1019.55
2016-09-28T04:07:45.331Z,1019.5
2016-09-28T04:08:46.090Z,1019.52
2016-09-28T04:09:46.799Z,1019.53
2016-09-28T04:10:47.485Z,1019.49
2016-09-28T04:11:48.182Z,1019.55
2016-09-28T04:12:48.918Z,1019.62
2016-09-28T04:13:49.641Z,1019.59
2016-09-28T04:14:50.324Z,1019.63
2016-09-28T04:15:51.009Z,1019.68
2016-09-28T04:16:51.753Z,1019.67
2016-09-28T04:17:52.441Z,1019.69
2016-09-28T04:18:53.118Z,1019.56
2016-09-28T04:19:53.792Z,1019.55
2016-09-28T04:20:54.492Z,1019.54
2016-09-28T04:21:55.191Z,1019.59
2016-09-28T04:22:55.900Z,1019.54
2016-09-28T04:23:56.584Z,1019.53
2016-09-28T04:24:57.278Z,1019.51
2016-09-28T04:25:57.963Z,1019.52
2016-09-28T04:26:58.653Z,1019.5
2016-09-28T04:27:59.338Z,1019.56
2016-09-28T04:29:00.089Z,1019.55
2016-09-28T04:30:00.772Z,1019.58
2016-09-28T04:31:01.472Z,1019.53
2016-09-28T04:32:02.192Z,1019.65
2016-09-28T04:33:02.899Z,1019.67
2016-09-28T04:34:03.592Z,1019.61
2016-09-28T04:35:04.294Z,1019.52
2016-09-28T04:36:04.984Z,1019.54
2016-09-28T04:37:05.684Z,1019.47
2016-09-28T04:38:06.353Z,1019.46
2016-09-28T04:39:07.057Z,1019.53
2016-09-28T04:40:07.791Z,1019.44
2016-09-28T04:41:08.425Z,1019.49
2016-09-28T04:42:09.122Z,1019.48
2016-09-28T04:43:10.718Z,1019.46
2016-09-28T04:44:11.406Z,1019.49
2016-09-28T04:45:12.097Z,1019.43
2016-09-28T04:46:12.799Z,1019.35
2016-09-28T04:47:13.503Z,1019.34
2016-09-28T04:48:14.192Z,1019.28
2016-09-28T04:49:14.888Z,1019.21
2016-09-28T04:50:15.607Z,1019.31
2016-09-28T04:51:16.455Z,1019.24
2016-09-28T04:52:17.191Z,1019.23
2016-09-28T04:53:17.901Z,1019.28
2016-09-28T04:54:18.738Z,1019.25
2016-09-28T04:55:19.447Z,1019.23
2016-09-28T04:56:20.146Z,1019.27
2016-09-28T04:57:20.833Z,1019.25
2016-09-28T04:58:21.522Z,1019.24
2016-09-28T04:59:22.212Z,1019.27
2016-09-28T05:00:22.903Z,1019.28
2016-09-28T05:01:23.623Z,1019.21
2016-09-28T05:02:24.524Z,1019.18
2016-09-28T05:03:26.191Z,1019.18
2016-09-28T05:04:26.958Z,1019.22
2016-09-28T05:05:27.644Z,1019.27
2016-09-28T05:06:28.332Z,1019.26
2016-09-28T05:07:29.037Z,1019.17
2016-09-28T05:08:29.746Z,1019.15
2016-09-28T05:09:30.433Z,1019.11
2016-09-28T05:10:31.157Z,1019.11
2016-09-28T05:11:31.860Z,1018.98
2016-09-28T05:12:32.545Z,1018.96
2016-09-28T05:13:33.226Z,1018.88
2016-09-28T05:14:33.922Z,1018.8
2016-09-28T05:15:34.629Z,1018.77
2016-09-28T05:16:35.318Z,1018.76
2016-09-28T05:17:36.016Z,1018.73
2016-09-28T05:18:36.703Z,1018.79
2016-09-28T05:19:37.383Z,1018.82
2016-09-28T05:20:38.067Z,1018.8
2016-09-28T05:21:38.774Z,1018.92
2016-09-28T05:22:39.454Z,1018.92
2016-09-28T05:23:40.148Z,1018.96
2016-09-28T05:24:40.863Z,1018.99
2016-09-28T05:25:41.549Z,1019.01
2016-09-28T05:26:42.248Z,1018.93
2016-09-28T05:27:42.940Z,1018.86
2016-09-28T05:28:43.627Z,1018.74
2016-09-28T05:29:44.336Z,1018.67
2016-09-28T05:30:45.018Z,1018.58
2016-09-28T05:31:45.730Z,1018.52
2016-09-28T05:32:46.412Z,1018.48
2016-09-28T05:33:47.141Z,1018.4
2016-09-28T05:34:47.860Z,1018.49
2016-09-28T05:35:48.547Z,1018.37
2016-09-28T05:36:49.233Z,1018.44
2016-09-28T05:37:49.931Z,1018.41
2016-09-28T05:38:50.625Z,1018.44
2016-09-28T05:39:51.328Z,1018.46
2016-09-28T05:40:52.012Z,1018.4
2016-09-28T05:41:52.733Z,1018.41
2016-09-28T05:42:53.410Z,1018.42
2016-09-28T05:43:54.099Z,1018.29
2016-09-28T05:44:54.786Z,1018.25
2016-09-28T05:45:55.524Z,1018.29
2016-09-28T05:46:56.234Z,1018.27
2016-09-28T05:47:56.924Z,1018.26
2016-09-28T05:48:57.611Z,1018.24
2016-09-28T05:49:58.316Z,1018.22
2016-09-28T05:50:59.029Z,1018.23
2016-09-28T05:51:59.730Z,1018.16
2016-09-28T05:53:00.404Z,1018.21
2016-09-28T05:54:01.080Z,1018.19
2016-09-28T05:55:01.781Z,1018.24
2016-09-28T05:56:02.531Z,1018.2
2016-09-28T05:57:03.257Z,1018.17
2016-09-28T05:58:03.951Z,1018.17
2016-09-28T05:59:04.649Z,1018.19
2016-09-28T06:00:05.382Z,1018.17
2016-09-28T06:01:06.143Z,1018.24
2016-09-28T06:02:06.829Z,1018.19
2016-09-28T06:03:07.532Z,1018.23
2016-09-28T06:04:08.223Z,1018.16
2016-09-28T06:05:08.916Z,1018.18
2016-09-28T06:06:09.598Z,1018.26
2016-09-28T06:07:10.299Z,1018.36
2016-09-28T06:08:11.005Z,1018.37
2016-09-28T06:09:11.713Z,1018.28
2016-09-28T06:10:12.504Z,1018.26
2016-09-28T06:12:17.329Z,1018.22
2016-09-28T06:13:18.024Z,1018.27
2016-09-28T06:14:18.731Z,1018.24
2016-09-28T06:15:19.418Z,1018.36
2016-09-28T06:16:20.115Z,1018.4
2016-09-28T06:17:21.145Z,1018.46
2016-09-28T06:18:22.237Z,1018.54
2016-09-28T06:19:22.943Z,1018.55
2016-09-28T06:20:23.661Z,1018.52
2016-09-28T06:21:24.348Z,1018.53
2016-09-28T06:22:25.028Z,1018.49
2016-09-28T06:23:25.723Z,1018.46
2016-09-28T06:24:26.416Z,1018.45
2016-09-28T06:25:27.093Z,1018.44
2016-09-28T06:26:27.766Z,1018.39
2016-09-28T06:27:28.451Z,1018.32
2016-09-28T06:28:29.198Z,1018.31
2016-09-28T06:29:29.887Z,1018.35
2016-09-28T06:30:30.570Z,1018.35
2016-09-28T06:31:31.278Z,1018.4
2016-09-28T06:32:31.969Z,1018.35
2016-09-28T06:33:32.644Z,1018.46
2016-09-28T06:34:33.376Z,1018.52
2016-09-28T06:35:34.077Z,1018.51
2016-09-28T06:36:34.797Z,1018.55
2016-09-28T06:37:35.509Z,1018.54
2016-09-28T06:38:36.196Z,1018.58
2016-09-28T06:39:36.892Z,1018.56
2016-09-28T06:40:37.619Z,1018.58
2016-09-28T06:41:38.307Z,1018.52
2016-09-28T06:42:39.003Z,1018.57
2016-09-28T06:43:39.694Z,1018.5
2016-09-28T06:44:40.388Z,1018.54
2016-09-28T06:45:41.087Z,1018.59
2016-09-28T06:46:41.768Z,1018.53
2016-09-28T06:47:42.463Z,1018.56
2016-09-28T06:48:43.185Z,1018.57
2016-09-28T06:49:43.896Z,1018.61
2016-09-28T06:50:44.641Z,1018.52
2016-09-28T06:51:45.357Z,1018.59
2016-09-28T06:52:46.049Z,1018.63
2016-09-28T06:53:46.764Z,1018.64
2016-09-28T06:54:47.466Z,1018.7
2016-09-28T06:55:48.161Z,1018.7
2016-09-28T06:56:48.860Z,1018.64
2016-09-28T06:57:49.553Z,1018.65
2016-09-28T06:58:50.278Z,1018.59
2016-09-28T06:59:51.026Z,1018.53
2016-09-28T07:00:51.690Z,1018.55
2016-09-28T07:01:52.378Z,1018.49
2016-09-28T07:02:53.073Z,1018.46
2016-09-28T07:03:53.757Z,1018.45
2016-09-28T07:04:54.436Z,1018.51
2016-09-28T07:05:55.152Z,1018.51
2016-09-28T07:06:55.842Z,1018.54
2016-09-28T07:07:56.560Z,1018.6
2016-09-28T07:08:57.250Z,1018.58
2016-09-28T07:09:57.963Z,1018.6
2016-09-28T07:10:58.662Z,1018.51
2016-09-28T07:11:59.365Z,1018.53
2016-09-28T07:13:00.072Z,1018.5
2016-09-28T07:14:00.772Z,1018.45
2016-09-28T07:15:01.476Z,1018.48
2016-09-28T07:16:02.169Z,1018.55
2016-09-28T07:17:02.867Z,1018.56
2016-09-28T07:18:03.557Z,1018.59
2016-09-28T07:19:04.254Z,1018.68
2016-09-28T07:20:04.974Z,1018.67
2016-09-28T07:21:05.664Z,1018.58
2016-09-28T07:22:06.356Z,1018.55
2016-09-28T07:23:07.056Z,1018.52
2016-09-28T07:24:07.751Z,1018.52
2016-09-28T07:25:08.475Z,1018.5
2016-09-28T07:26:09.175Z,1018.56
2016-09-28T07:27:09.872Z,1018.54
2016-09-28T07:28:10.570Z,1018.53
2016-09-28T07:29:11.260Z,1018.56
2016-09-28T07:30:11.942Z,1018.54
2016-09-28T07:31:12.633Z,1018.46
2016-09-28T07:32:13.322Z,1018.51
2016-09-28T07:33:14.009Z,1018.43
2016-09-28T07:34:14.701Z,1018.53
2016-09-28T07:35:15.387Z,1018.53
2016-09-28T07:36:16.080Z,1018.6
2016-09-28T07:37:16.772Z,1018.53
2016-09-28T07:38:17.463Z,1018.49
2016-09-28T07:39:18.145Z,1018.5
2016-09-28T07:40:18.838Z,1018.55
2016-09-28T07:41:19.540Z,1018.62
2016-09-28T07:42:20.223Z,1018.68
2016-09-28T07:43:20.920Z,1018.68
2016-09-28T07:44:21.727Z,1018.69
2016-09-28T07:45:22.465Z,1018.63
2016-09-28T07:46:23.155Z,1018.66
2016-09-28T07:47:23.852Z,1018.64
2016-09-28T07:48:24.575Z,1018.62
2016-09-28T07:49:25.306Z,1018.57
2016-09-28T07:50:25.991Z,1018.57
2016-09-28T07:51:26.672Z,1018.53
2016-09-28T07:52:27.363Z,1018.55
2016-09-28T07:53:28.052Z,1018.57
2016-09-28T07:54:28.770Z,1018.61
2016-09-28T07:55:29.457Z,1018.63
2016-09-28T07:56:30.163Z,1018.7
2016-09-28T07:57:30.848Z,1018.63
2016-09-28T07:58:31.526Z,1018.57
2016-09-28T07:59:32.213Z,1018.58
2016-09-28T08:00:32.915Z,1018.55
2016-09-28T08:01:33.679Z,1018.49
2016-09-28T08:02:34.362Z,1018.49
2016-09-28T08:03:35.092Z,1018.52
2016-09-28T08:04:35.769Z,1018.5
2016-09-28T08:05:36.455Z,1018.38
2016-09-28T08:06:37.180Z,1018.48
2016-09-28T08:07:37.904Z,1018.51
2016-09-28T08:08:38.621Z,1018.62
2016-09-28T08:09:39.311Z,1018.61
2016-09-28T08:10:40.001Z,1018.61
2016-09-28T08:11:40.693Z,1018.56
2016-09-28T08:12:41.396Z,1018.58
2016-09-28T08:13:42.086Z,1018.56
2016-09-28T08:14:42.789Z,1018.57
2016-09-28T08:15:43.476Z,1018.64
2016-09-28T08:16:44.171Z,1018.57
2016-09-28T08:17:44.908Z,1018.63
2016-09-28T08:18:45.599Z,1018.62
2016-09-28T08:19:46.292Z,1018.59
2016-09-28T08:20:46.999Z,1018.61
2016-09-28T08:21:47.722Z,1018.63
2016-09-28T08:22:48.412Z,1018.6
2016-09-28T08:23:49.155Z,1018.56
2016-09-28T08:24:49.815Z,1018.62
2016-09-28T08:25:50.521Z,1018.59
2016-09-28T08:26:51.256Z,1018.58
2016-09-28T08:27:51.966Z,1018.53
2016-09-28T08:28:52.728Z,1018.57
2016-09-28T08:29:53.425Z,1018.5
2016-09-28T08:30:54.101Z,1018.52
2016-09-28T08:31:54.791Z,1018.54
2016-09-28T08:32:55.484Z,1018.46
2016-09-28T08:33:56.207Z,1018.5
2016-09-28T08:34:56.986Z,1018.52
2016-09-28T08:35:57.661Z,1018.53
2016-09-28T08:36:58.363Z,1018.51
2016-09-28T08:37:59.329Z,1018.56
2016-09-28T08:39:00.256Z,1018.45
2016-09-28T08:40:00.971Z,1018.57
2016-09-28T08:41:01.654Z,1018.5
2016-09-28T08:42:02.354Z,1018.45
2016-09-28T08:43:03.055Z,1018.51
2016-09-28T08:44:03.761Z,1018.54
2016-09-28T08:45:04.466Z,1018.6
2016-09-28T08:46:05.189Z,1018.57
2016-09-28T08:47:05.896Z,1018.6
2016-09-28T08:48:06.587Z,1018.71
2016-09-28T08:49:07.280Z,1018.58
2016-09-28T08:50:07.981Z,1018.59
2016-09-28T08:51:08.669Z,1018.51
2016-09-28T08:52:09.356Z,1018.57
2016-09-28T08:53:10.046Z,1018.59
2016-09-28T08:54:10.753Z,1018.54
2016-09-28T08:55:11.450Z,1018.63
2016-09-28T08:56:12.189Z,1018.54
2016-09-28T08:57:12.884Z,1018.56
2016-09-28T08:58:13.622Z,1018.56
2016-09-28T08:59:14.337Z,1018.61
2016-09-28T09:00:15.023Z,1018.62
2016-09-28T09:01:15.722Z,1018.63
2016-09-28T09:02:16.420Z,1018.63
2016-09-28T09:03:17.127Z,1018.65
2016-09-28T09:04:17.831Z,1018.65
2016-09-28T09:05:18.532Z,1018.65
2016-09-28T09:06:19.223Z,1018.71
2016-09-28T09:07:19.916Z,1018.63
2016-09-28T09:08:20.601Z,1018.58
2016-09-28T09:09:21.315Z,1018.52
2016-09-28T09:10:22.015Z,1018.61
2016-09-28T09:11:22.705Z,1018.59
2016-09-28T09:12:23.408Z,1018.49
2016-09-28T09:13:24.099Z,1018.49
2016-09-28T09:14:24.807Z,1018.49
2016-09-28T09:15:25.492Z,1018.54
2016-09-28T09:16:26.201Z,1018.53
2016-09-28T09:17:26.909Z,1018.52
2016-09-28T09:18:27.631Z,1018.56
2016-09-28T09:19:28.338Z,1018.65
2016-09-28T09:20:29.032Z,1018.62
2016-09-28T09:21:29.741Z,1018.59
2016-09-28T09:22:30.443Z,1018.6
2016-09-28T09:23:31.176Z,1018.6
2016-09-28T09:24:31.912Z,1018.59
2016-09-28T09:25:32.663Z,1018.63
2016-09-28T09:26:33.396Z,1018.63
2016-09-28T09:27:34.116Z,1018.62
2016-09-28T09:28:34.839Z,1018.67
2016-09-28T09:29:35.589Z,1018.55
2016-09-28T09:30:36.378Z,1018.56
2016-09-28T09:31:37.231Z,1018.56
2016-09-28T09:32:37.926Z,1018.65
2016-09-28T09:33:38.668Z,1018.63
2016-09-28T09:34:39.387Z,1018.7
2016-09-28T09:35:40.117Z,1018.68
2016-09-28T09:36:40.884Z,1018.71
2016-09-28T09:37:41.617Z,1018.74
2016-09-28T09:38:42.384Z,1018.67
2016-09-28T09:39:43.185Z,1018.67
2016-09-28T09:40:43.940Z,1018.62
2016-09-28T09:41:44.666Z,1018.68
2016-09-28T09:42:45.407Z,1018.66
2016-09-28T09:43:46.173Z,1018.64
2016-09-28T09:44:46.891Z,1018.56
2016-09-28T09:45:47.688Z,1018.58
2016-09-28T09:46:48.553Z,1018.6
2016-09-28T09:47:49.352Z,1018.62
2016-09-28T09:48:50.233Z,1018.55
2016-09-28T09:49:51.077Z,1018.49
2016-09-28T09:50:51.854Z,1018.53
2016-09-28T09:51:52.736Z,1018.49
2016-09-28T09:52:53.485Z,1018.55
2016-09-28T09:53:54.263Z,1018.56
2016-09-28T09:54:55.065Z,1018.61
2016-09-28T09:55:55.856Z,1018.58
2016-09-28T09:56:56.715Z,1018.52
2016-09-28T09:57:57.480Z,1018.53
2016-09-28T09:58:58.246Z,1018.57
2016-09-28T09:59:59.012Z,1018.55
2016-09-28T10:00:59.777Z,1018.65
2016-09-28T10:02:00.530Z,1018.59
2016-09-28T10:03:01.238Z,1018.58
2016-09-28T10:04:01.978Z,1018.62
2016-09-28T10:05:02.712Z,1018.56
2016-09-28T10:06:03.463Z,1018.58
2016-09-28T10:07:04.172Z,1018.5
2016-09-28T10:08:04.893Z,1018.47
2016-09-28T10:09:05.642Z,1018.48
2016-09-28T10:10:06.383Z,1018.47
2016-09-28T10:11:07.136Z,1018.46
2016-09-28T10:12:07.906Z,1018.48
2016-09-28T10:13:08.624Z,1018.37
2016-09-28T10:14:09.368Z,1018.43
2016-09-28T10:15:10.110Z,1018.34
2016-09-28T10:16:10.856Z,1018.33
2016-09-28T10:17:11.586Z,1018.36
2016-09-28T10:18:12.347Z,1018.3
2016-09-28T10:19:13.106Z,1018.23
2016-09-28T10:20:13.843Z,1018.14
2016-09-28T10:21:14.629Z,1018.19
2016-09-28T10:22:15.376Z,1018.21
2016-09-28T10:23:16.138Z,1018.25
2016-09-28T10:24:16.864Z,1018.28
2016-09-28T10:25:17.686Z,1018.23
2016-09-28T10:26:18.467Z,1018.19
2016-09-28T10:27:19.168Z,1018.11
2016-09-28T10:28:19.886Z,1018.07
2016-09-28T10:29:20.639Z,1018.08
2016-09-28T10:30:21.376Z,1018.16
2016-09-28T10:31:22.091Z,1018.07
2016-09-28T10:32:22.856Z,1018.08
2016-09-28T10:33:23.583Z,1018.1
2016-09-28T10:34:24.284Z,1018.13
2016-09-28T10:35:24.989Z,1018.09
2016-09-28T10:36:25.713Z,1018.15
2016-09-28T10:37:26.435Z,1018.13
2016-09-28T10:38:27.162Z,1018.13
2016-09-28T10:39:27.912Z,1018.15
2016-09-28T10:40:28.643Z,1018.2
2016-09-28T10:41:29.377Z,1018.08
2016-09-28T10:42:30.101Z,1018.11
2016-09-28T10:43:30.828Z,1017.97
2016-09-28T10:44:31.605Z,1018.08
2016-09-28T10:45:32.355Z,1018.02
2016-09-28T10:46:33.097Z,1018.05
2016-09-28T10:47:33.872Z,1018.04
2016-09-28T10:48:34.600Z,1018.13
2016-09-28T10:49:35.345Z,1018.04
2016-09-28T10:50:36.107Z,1018.03
2016-09-28T10:51:36.824Z,1018.03
2016-09-28T10:52:37.601Z,1018.06
2016-09-28T10:53:38.318Z,1018.06
2016-09-28T10:54:39.058Z,1018.13
2016-09-28T10:55:39.788Z,1018.06
2016-09-28T10:56:40.491Z,1018.13
2016-09-28T10:57:41.221Z,1018.1
2016-09-28T10:58:41.919Z,1018.13
2016-09-28T10:59:42.614Z,1018.17
2016-09-28T11:00:43.306Z,1018.08
2016-09-28T11:01:43.997Z,1018.15
2016-09-28T11:02:44.727Z,1018.17
2016-09-28T11:03:45.433Z,1018.19
2016-09-28T11:04:46.117Z,1018.26
2016-09-28T11:05:46.833Z,1018.18
2016-09-28T11:06:47.540Z,1018.11
2016-09-28T11:07:48.266Z,1018.17
2016-09-28T11:08:48.953Z,1018.21
2016-09-28T11:09:49.644Z,1018.21
2016-09-28T11:10:50.358Z,1018.2
2016-09-28T11:11:51.071Z,1018.16
2016-09-28T11:12:51.772Z,1018.15
2016-09-28T11:13:52.468Z,1018.14
2016-09-28T11:14:53.158Z,1018.04
2016-09-28T11:15:53.854Z,1018.11
2016-09-28T11:16:54.543Z,1018.06
2016-09-28T11:17:55.260Z,1018.18
2016-09-28T11:18:55.975Z,1018.19
2016-09-28T11:19:56.662Z,1018.23
2016-09-28T11:20:57.366Z,1018.11
2016-09-28T11:21:58.050Z,1018.16
2016-09-28T11:22:58.734Z,1018.1
2016-09-28T11:23:59.435Z,1018.16
2016-09-28T11:25:00.162Z,1018.18
2016-09-28T11:26:00.867Z,1018.14
2016-09-28T11:27:01.610Z,1018.15
2016-09-28T11:28:02.299Z,1018.16
2016-09-28T11:29:03.015Z,1018.19
2016-09-28T11:30:03.731Z,1018.13
2016-09-28T11:31:04.447Z,1018.15
2016-09-28T11:32:05.139Z,1018.2
2016-09-28T11:33:05.865Z,1018.13
2016-09-28T11:34:06.566Z,1018.13
2016-09-28T11:35:07.256Z,1018.14
2016-09-28T11:36:07.945Z,1018.04
2016-09-28T11:37:08.638Z,1018.07
2016-09-28T11:38:09.317Z,1018.12
2016-09-28T11:39:10.015Z,1018.03
2016-09-28T11:40:10.756Z,1018.05
2016-09-28T11:41:11.438Z,1018.07
2016-09-28T11:42:12.132Z,1018.09
2016-09-28T11:43:12.888Z,1018.13
2016-09-28T11:44:13.600Z,1018.11
2016-09-28T11:45:14.351Z,1018.11
2016-09-28T11:46:15.063Z,1018.19
2016-09-28T11:47:15.785Z,1018.2
2016-09-28T11:48:16.493Z,1018.18
2016-09-28T11:49:17.194Z,1018.17
2016-09-28T11:50:17.942Z,1018.21
2016-09-28T11:51:18.665Z,1018.27
2016-09-28T11:52:19.383Z,1018.32
2016-09-28T11:53:20.097Z,1018.26
2016-09-28T11:54:20.774Z,1018.29
2016-09-28T11:55:21.463Z,1018.27
2016-09-28T11:56:22.147Z,1018.27
2016-09-28T11:57:22.874Z,1018.34
2016-09-28T11:58:23.603Z,1018.25
2016-09-28T11:59:24.356Z,1018.25
2016-09-28T12:00:25.065Z,1018.31
2016-09-28T12:01:25.802Z,1018.34
2016-09-28T12:02:26.526Z,1018.31
2016-09-28T12:03:27.239Z,1018.3
2016-09-28T12:04:27.944Z,1018.18
2016-09-28T12:05:28.642Z,1018.27
2016-09-28T12:06:29.334Z,1018.26
2016-09-28T12:07:30.054Z,1018.26
2016-09-28T12:08:30.768Z,1018.31
2016-09-28T12:09:31.488Z,1018.24
2016-09-28T12:10:32.224Z,1018.27
2016-09-28T12:11:32.910Z,1018.29
2016-09-28T12:12:33.627Z,1018.3
2016-09-28T12:13:34.344Z,1018.32
2016-09-28T12:14:35.043Z,1018.35
2016-09-28T12:15:35.736Z,1018.43
2016-09-28T12:16:36.448Z,1018.34
2016-09-28T12:17:37.148Z,1018.41